Time;durP1;ratioP1;P1;durP2;ratioP2;P2;SDS_P1;SDS_P2;PMS_P1;PMS_P2;Temp;Humidity;BMP_temperature;BMP_pressure;BME280_temperature;BME280_humidity;BME280_pressure;Samples;Min_cycle;Max_cycle;Signal;HPM_P1;HPM_P2
2022/02/07 00:06:09;;;;;;;11.33;9.33;;;5.20;79.80;;;;;;6256375;28;20545;-67
2022/02/07 00:09:12;;;;;;;10.70;9.00;;;5.20;79.80;;;;;;6272424;28;20797;-66
2022/02/07 00:12:16;;;;;;;9.67;8.67;;;5.20;79.90;;;;;;6271871;28;20539;-67
2022/02/07 00:15:21;;;;;;;10.67;9.43;;;5.20;80.20;;;;;;6273611;28;20905;-66
2022/02/07 00:18:25;;;;;;;11.93;10.00;;;5.20;80.20;;;;;;6273145;28;20474;-67
2022/02/07 00:21:28;;;;;;;13.33;10.20;;;5.10;80.50;;;;;;6273309;28;20807;-67
2022/02/07 00:24:31;;;;;;;10.30;8.90;;;5.00;81.00;;;;;;6269817;28;20485;-67
2022/02/07 00:27:35;;;;;;;10.60;9.17;;;5.00;81.20;;;;;;6273635;28;20504;-67
2022/02/07 00:30:39;;;;;;;11.77;9.60;;;4.90;81.40;;;;;;6273071;28;20470;-67
2022/02/07 00:33:43;;;;;;;10.20;9.10;;;4.90;81.90;;;;;;6272210;28;20513;-66
2022/02/07 00:36:47;;;;;;;12.30;8.77;;;4.90;82.20;;;;;;6273236;28;20481;-67
2022/02/07 00:39:55;;;;;;;12.80;10.50;;;4.80;82.80;;;;;;6273438;28;20477;-69
2022/02/07 00:43:02;;;;;;;16.17;10.37;;;4.80;83.70;;;;;;6274124;28;20489;-67
2022/02/07 00:46:09;;;;;;;13.17;9.60;;;4.80;84.20;;;;;;6273860;28;20474;-66
2022/02/07 00:49:12;;;;;;;14.17;10.83;;;4.90;84.30;;;;;;6272711;28;20946;-67
2022/02/07 00:52:15;;;;;;;11.87;10.43;;;4.90;85.10;;;;;;6271799;28;20500;-67
2022/02/07 00:55:18;;;;;;;11.90;10.30;;;4.90;84.40;;;;;;6272143;28;20842;-67
2022/02/07 00:58:22;;;;;;;11.30;9.77;;;4.80;84.70;;;;;;6273570;28;20509;-65
2022/02/07 01:01:27;;;;;;;10.73;8.93;;;4.80;84.60;;;;;;6272368;28;20849;-67
2022/02/07 01:04:30;;;;;;;12.20;9.10;;;4.90;85.40;;;;;;6274675;28;20474;-66
2022/02/07 01:07:33;;;;;;;10.57;9.40;;;4.90;85.40;;;;;;6271652;28;21146;-67
2022/02/07 01:10:48;;;;;;;15.73;10.20;;;4.90;85.30;;;;;;6272223;28;20532;-67
2022/02/07 01:14:13;;;;;;;11.73;10.50;;;4.90;85.50;;;;;;6272716;28;20478;-65
2022/02/07 01:48:13;;;;;;;10.97;9.80;;;5.20;85.50;;;;;;6276461;28;20781;-66
2022/02/07 01:51:36;;;;;;;11.63;8.90;;;5.10;85.50;;;;;;6260340;28;20479;-65
2022/02/07 01:54:43;;;;;;;11.53;10.20;;;5.10;85.60;;;;;;6270659;28;20474;-65
2022/02/07 01:57:48;;;;;;;13.60;9.27;;;5.10;85.60;;;;;;6275306;28;20470;-66
2022/02/07 02:00:52;;;;;;;14.13;9.73;;;5.10;85.90;;;;;;6274786;28;20789;-66
2022/02/07 02:03:55;;;;;;;9.80;8.67;;;5.00;85.90;;;;;;6275163;28;20565;-65
2022/02/07 02:06:59;;;;;;;12.07;10.23;;;5.00;86.50;;;;;;6276295;28;20523;-66
2022/02/07 02:10:03;;;;;;;12.40;10.00;;;5.00;86.80;;;;;;6275289;28;20470;-66
2022/02/07 02:13:10;;;;;;;11.30;10.10;;;5.00;86.90;;;;;;6276300;28;20485;-65
2022/02/07 02:16:19;;;;;;;12.10;9.37;;;5.10;87.00;;;;;;6276044;28;20474;-65
2022/02/07 02:36:23;;;;;;;9.40;8.33;;;5.10;87.40;;;;;;6277764;28;20486;-66
2022/02/07 02:46:22;;;;;;;9.67;8.43;;;5.30;87.60;;;;;;6217247;28;20466;-66
2022/02/07 02:49:32;;;;;;;15.33;8.50;;;5.40;87.30;;;;;;6251640;28;20479;-66
2022/02/07 02:52:35;;;;;;;12.60;8.77;;;5.40;87.70;;;;;;6251761;28;20490;-65
2022/02/07 02:55:41;;;;;;;11.73;8.90;;;5.40;88.00;;;;;;6251567;28;20466;-66
2022/02/07 02:58:45;;;;;;;12.73;9.07;;;5.50;88.40;;;;;;6251498;28;20479;-66
2022/02/07 03:01:48;;;;;;;10.87;8.20;;;5.50;89.50;;;;;;6251610;28;20479;-65
2022/02/07 03:04:51;;;;;;;9.80;8.57;;;5.40;90.10;;;;;;6251553;28;20544;-65
2022/02/07 03:07:54;;;;;;;11.97;9.40;;;5.60;90.20;;;;;;6267056;28;20470;-65
2022/02/07 03:11:03;;;;;;;9.83;8.53;;;5.70;90.30;;;;;;6276189;28;20473;-65
2022/02/07 03:14:07;;;;;;;12.90;9.53;;;5.70;90.50;;;;;;6275914;28;20496;-65
2022/02/07 03:17:09;;;;;;;9.53;8.00;;;5.70;90.70;;;;;;6275932;28;21030;-66
2022/02/07 03:20:13;;;;;;;11.17;8.33;;;5.80;90.80;;;;;;6275829;28;20474;-66
2022/02/07 03:23:16;;;;;;;10.53;8.93;;;5.80;91.10;;;;;;6275181;28;20469;-66
2022/02/07 03:26:21;;;;;;;12.10;9.40;;;5.70;91.90;;;;;;6275571;28;20478;-66
2022/02/07 03:29:24;;;;;;;9.23;8.27;;;5.90;92.60;;;;;;6275614;28;20450;-66
2022/02/07 03:32:27;;;;;;;10.40;8.30;;;6.00;93.00;;;;;;6275504;28;20995;-66
2022/02/07 03:35:30;;;;;;;9.80;8.13;;;6.10;93.20;;;;;;6266053;28;20446;-65
2022/02/07 03:38:34;;;;;;;10.90;8.60;;;6.10;93.30;;;;;;6275683;28;20449;-66
2022/02/07 03:41:38;;;;;;;10.10;8.17;;;6.20;93.50;;;;;;6291990;28;20469;-66
2022/02/07 03:44:41;;;;;;;9.53;8.53;;;6.30;93.60;;;;;;6300375;28;20441;-66
2022/02/07 03:47:45;;;;;;;10.60;8.13;;;6.40;93.70;;;;;;6300366;28;20456;-66
2022/02/07 03:50:48;;;;;;;11.70;6.63;;;6.40;93.80;;;;;;6300188;28;20469;-66
2022/02/07 03:53:51;;;;;;;10.03;6.97;;;6.50;93.80;;;;;;6300051;28;20469;-65
2022/02/07 03:56:55;;;;;;;9.93;8.13;;;6.50;93.70;;;;;;6298730;28;20968;-66
2022/02/07 04:00:00;;;;;;;9.57;6.83;;;6.50;94.00;;;;;;6300245;28;20469;-66
2022/02/07 04:03:07;;;;;;;10.30;6.20;;;6.50;95.10;;;;;;6299653;28;20488;-66
2022/02/07 04:06:14;;;;;;;10.53;7.00;;;6.50;96.30;;;;;;6298377;28;20475;-66
2022/02/07 04:09:21;;;;;;;8.30;6.80;;;6.50;97.20;;;;;;6274776;28;20474;-66
2022/02/07 04:12:28;;;;;;;8.03;6.73;;;6.50;98.10;;;;;;6274670;28;20481;-65
2022/02/07 04:15:31;;;;;;;7.57;6.50;;;6.60;99.30;;;;;;6275361;28;20567;-65
2022/02/07 04:18:48;;;;;;;6.27;5.67;;;6.50;99.90;;;;;;6274984;28;20477;-65
2022/02/07 04:21:53;;;;;;;7.30;4.97;;;6.50;99.90;;;;;;6274882;28;20498;-65
2022/02/07 04:24:56;;;;;;;5.47;4.97;;;6.50;99.90;;;;;;6274746;28;20473;-65
2022/02/07 04:28:01;;;;;;;8.87;5.30;;;6.40;99.90;;;;;;6274678;28;20477;-65
2022/02/07 04:31:04;;;;;;;7.37;5.80;;;6.50;99.90;;;;;;6274547;28;20478;-65
2022/02/07 04:34:07;;;;;;;5.77;5.17;;;6.40;99.90;;;;;;6273902;28;20817;-66
2022/02/07 04:37:10;;;;;;;5.67;5.17;;;6.50;99.90;;;;;;6274215;28;20982;-66
2022/02/07 04:40:14;;;;;;;6.50;5.80;;;6.40;99.90;;;;;;6274792;28;20847;-66
2022/02/07 04:43:19;;;;;;;5.93;5.30;;;6.50;99.90;;;;;;6299019;28;20542;-66
2022/02/07 04:46:35;;;;;;;10.03;6.03;;;6.50;99.90;;;;;;6299487;28;20469;-66
2022/02/07 04:50:03;;;;;;;7.40;5.90;;;6.50;99.90;;;;;;6299170;28;20473;-66
2022/02/07 04:53:20;;;;;;;6.23;5.30;;;6.50;99.90;;;;;;6299114;28;20937;-66
2022/02/07 04:59:51;;;;;;;10.90;5.90;;;6.40;99.90;;;;;;6297851;28;20461;-66
2022/02/07 05:03:02;;;;;;;6.57;5.97;;;6.40;99.90;;;;;;6299219;28;20466;-66
2022/02/07 05:16:20;;;;;;;7.53;6.73;;;6.40;99.90;;;;;;6253985;28;20541;-66
2022/02/07 05:19:24;;;;;;;8.83;7.37;;;6.50;99.90;;;;;;6254039;28;20535;-66
2022/02/07 05:22:30;;;;;;;13.27;10.50;;;6.40;99.90;;;;;;6253467;28;20471;-64
2022/02/07 05:25:33;;;;;;;12.70;8.50;;;6.40;99.90;;;;;;6253815;28;20475;-65
2022/02/07 05:28:37;;;;;;;9.90;8.67;;;6.40;99.90;;;;;;6253485;28;20511;-64
2022/02/07 05:31:42;;;;;;;9.57;7.30;;;6.20;99.90;;;;;;6253566;28;20482;-64
2022/02/07 05:34:45;;;;;;;9.93;7.60;;;6.10;99.90;;;;;;6253764;28;20474;-64
2022/02/07 05:37:48;;;;;;;8.03;7.20;;;6.00;99.90;;;;;;6254162;28;20474;-64
2022/02/07 05:40:55;;;;;;;9.53;8.00;;;6.00;99.90;;;;;;6273672;28;20469;-64
2022/02/07 05:43:58;;;;;;;6.87;5.90;;;6.00;99.90;;;;;;6303352;28;20472;-63
2022/02/07 05:47:03;;;;;;;6.20;5.60;;;6.00;99.90;;;;;;6288625;28;20879;-63
2022/02/07 05:50:07;;;;;;;6.77;5.80;;;5.90;99.90;;;;;;6302984;28;20481;-67
2022/02/07 05:53:11;;;;;;;7.97;5.70;;;5.90;99.90;;;;;;6302921;28;20502;-66
2022/02/07 05:56:14;;;;;;;6.67;5.87;;;5.90;99.90;;;;;;6302825;28;20476;-66
2022/02/07 05:59:17;;;;;;;6.17;5.57;;;5.80;99.90;;;;;;6302609;28;20472;-66
2022/02/07 06:02:21;;;;;;;7.10;5.33;;;5.80;99.90;;;;;;6302587;28;20484;-65
2022/02/07 06:05:24;;;;;;;7.07;6.00;;;5.70;99.90;;;;;;6302683;28;20470;-66
2022/02/07 06:08:29;;;;;;;6.43;5.80;;;5.50;99.90;;;;;;6281840;28;20544;-66
2022/02/07 06:11:32;;;;;;;6.27;5.70;;;5.50;99.90;;;;;;6277452;28;20470;-66
2022/02/07 06:14:36;;;;;;;5.10;4.03;;;5.40;99.90;;;;;;6277490;28;20540;-67
2022/02/07 06:17:41;;;;;;;4.30;3.90;;;5.40;99.90;;;;;;6276753;28;20823;-66
2022/02/07 06:20:45;;;;;;;4.27;2.57;;;5.60;99.90;;;;;;6277236;28;20470;-66
2022/02/07 06:23:48;;;;;;;3.43;2.93;;;5.60;99.90;;;;;;6277435;28;20462;-67
2022/02/07 06:26:51;;;;;;;3.30;3.00;;;5.70;99.90;;;;;;6277482;28;20543;-67
2022/02/07 06:29:54;;;;;;;2.80;2.30;;;5.70;99.90;;;;;;6277201;28;20480;-66
2022/02/07 06:32:59;;;;;;;3.40;3.10;;;5.90;99.90;;;;;;6276978;28;20477;-66
2022/02/07 06:36:02;;;;;;;3.97;2.13;;;6.00;99.90;;;;;;6277121;28;20478;-67
2022/02/07 06:39:05;;;;;;;3.37;2.43;;;6.00;99.90;;;;;;6276961;28;20485;-65
2022/02/07 06:42:09;;;;;;;1.70;1.23;;;6.10;99.90;;;;;;6297161;28;20473;-65
2022/02/07 06:45:12;;;;;;;1.60;1.50;;;6.10;93.50;;;;;;6301722;28;20479;-65
2022/02/07 06:48:17;;;;;;;0.83;0.83;;;6.20;93.20;;;;;;6291376;28;20813;-65
2022/02/07 06:51:20;;;;;;;0.80;0.80;;;6.40;90.60;;;;;;6301127;28;20626;-66
2022/02/07 06:54:23;;;;;;;2.20;0.90;;;6.60;87.40;;;;;;6301383;28;20481;-65
2022/02/07 06:57:26;;;;;;;1.67;1.30;;;6.60;88.20;;;;;;6300976;28;20956;-65
2022/02/07 07:00:30;;;;;;;1.43;1.23;;;6.70;88.90;;;;;;6301387;28;20572;-66
2022/02/07 07:03:35;;;;;;;1.10;1.00;;;6.80;90.30;;;;;;6300793;28;20519;-66
2022/02/07 07:06:40;;;;;;;0.90;0.90;;;6.90;90.90;;;;;;6296348;28;20484;-65
2022/02/07 07:09:45;;;;;;;1.00;0.90;;;7.00;90.00;;;;;;6276539;28;20466;-66
2022/02/07 07:12:56;;;;;;;1.93;1.47;;;7.10;90.30;;;;;;6276302;28;20470;-66
2022/02/07 07:16:12;;;;;;;3.40;1.50;;;7.10;90.30;;;;;;6251388;28;20822;-65
2022/02/07 07:19:16;;;;;;;1.87;1.40;;;7.10;84.40;;;;;;6251887;28;20481;-66
2022/02/07 07:22:19;;;;;;;1.23;1.13;;;7.20;78.50;;;;;;6251739;28;20471;-65
2022/02/07 07:25:23;;;;;;;0.80;0.80;;;7.10;77.50;;;;;;6251487;28;21002;-65
2022/02/07 07:28:26;;;;;;;0.77;0.70;;;7.10;75.20;;;;;;6252038;28;20486;-67
2022/02/07 07:31:30;;;;;;;0.70;0.70;;;7.00;74.00;;;;;;6250869;28;20613;-66
2022/02/07 07:34:36;;;;;;;0.50;0.50;;;7.00;73.50;;;;;;6251573;28;20482;-65
2022/02/07 07:37:39;;;;;;;0.57;0.57;;;6.90;73.20;;;;;;6251673;28;20468;-65
2022/02/07 07:40:43;;;;;;;1.50;0.70;;;6.90;70.20;;;;;;6268848;28;20476;-64
2022/02/07 07:43:49;;;;;;;0.70;0.70;;;6.80;73.20;;;;;;6299970;28;20469;-64
2022/02/07 07:46:56;;;;;;;0.40;0.40;;;6.80;73.80;;;;;;6299727;28;20949;-65
2022/02/07 07:50:10;;;;;;;0.77;0.60;;;6.70;72.00;;;;;;6300612;28;20484;-65
2022/02/07 07:53:22;;;;;;;0.60;0.60;;;6.70;72.30;;;;;;6300798;28;20477;-64
2022/02/07 08:03:07;;;;;;;1.00;1.00;;;6.60;73.50;;;;;;6299516;28;20484;-62
2022/02/07 08:06:16;;;;;;;1.03;1.00;;;6.70;75.00;;;;;;6298428;28;20484;-63
2022/02/07 08:09:35;;;;;;;2.70;2.37;;;6.70;75.50;;;;;;6274120;28;20474;-62
2022/02/07 08:12:40;;;;;;;3.13;2.83;;;6.80;74.30;;;;;;6274755;28;20482;-63
2022/02/07 08:15:43;;;;;;;1.03;1.03;;;6.80;74.90;;;;;;6273362;28;20482;-62
2022/02/07 08:18:46;;;;;;;1.40;1.30;;;6.90;74.20;;;;;;6274195;28;20962;-63
2022/02/07 08:21:51;;;;;;;2.73;2.53;;;6.90;74.60;;;;;;6271724;28;20486;-62
2022/02/07 08:24:56;;;;;;;2.80;2.60;;;7.00;72.60;;;;;;6273866;28;20466;-63
2022/02/07 08:28:00;;;;;;;3.30;1.43;;;7.00;73.30;;;;;;6273665;28;20478;-62
2022/02/07 08:31:03;;;;;;;3.50;2.23;;;7.00;72.60;;;;;;6273764;28;20964;-63
2022/02/07 08:34:07;;;;;;;2.00;1.00;;;7.20;72.80;;;;;;6254343;28;20475;-64
2022/02/07 08:37:11;;;;;;;0.90;0.90;;;7.20;72.00;;;;;;6258419;28;20536;-62
2022/02/07 08:40:14;;;;;;;0.60;0.60;;;7.20;70.60;;;;;;6273805;28;20470;-63
2022/02/07 08:43:18;;;;;;;4.10;1.20;;;7.40;66.80;;;;;;6277598;28;20536;-63
2022/02/07 08:46:21;;;;;;;2.50;1.90;;;7.70;66.90;;;;;;6279268;28;20477;-63
2022/02/07 08:49:25;;;;;;;2.83;0.90;;;7.90;67.90;;;;;;6278902;28;21013;-63
2022/02/07 08:52:31;;;;;;;1.70;0.67;;;8.20;68.50;;;;;;6279312;28;20474;-63
2022/02/07 08:55:37;;;;;;;1.33;1.00;;;8.40;67.20;;;;;;6279723;28;20486;-62
2022/02/07 08:58:44;;;;;;;0.70;0.70;;;8.50;66.20;;;;;;6268378;28;20474;-64
2022/02/07 09:02:02;;;;;;;0.70;0.70;;;8.40;66.90;;;;;;6278572;28;20470;-63
2022/02/07 09:05:33;;;;;;;0.83;0.70;;;8.30;69.40;;;;;;6276362;28;20917;-66
2022/02/07 09:08:52;;;;;;;0.60;0.60;;;8.20;72.00;;;;;;6279372;28;20450;-66
2022/02/07 09:11:55;;;;;;;1.20;0.70;;;8.00;72.10;;;;;;6279354;28;20473;-66
2022/02/07 09:15:27;;;;;;;0.60;0.60;;;7.90;73.50;;;;;;6278803;28;20462;-65
2022/02/07 09:18:27;;;;;;;1.00;0.43;;;7.80;74.40;;;;;;6279152;28;20474;-68
2022/02/07 09:21:31;;;;;;;0.80;0.50;;;7.90;74.80;;;;;;6278378;28;20466;-67
2022/02/07 09:24:37;;;;;;;2.23;0.60;;;7.90;73.50;;;;;;6278930;28;20477;-67
2022/02/07 09:27:41;;;;;;;0.73;0.57;;;7.90;74.60;;;;;;6278416;28;20790;-66
2022/02/07 09:30:44;;;;;;;1.13;0.80;;;8.00;75.60;;;;;;6278557;28;20458;-68
2022/02/07 09:33:47;;;;;;;0.70;0.70;;;7.90;77.00;;;;;;6278098;28;20470;-67
2022/02/07 09:36:53;;;;;;;0.60;0.60;;;8.00;77.40;;;;;;6278453;28;20469;-67
2022/02/07 09:39:57;;;;;;;0.70;0.70;;;8.20;76.30;;;;;;6282123;28;20492;-67
2022/02/07 09:43:00;;;;;;;0.70;0.57;;;8.50;75.20;;;;;;6303432;28;20477;-65
2022/02/07 09:46:08;;;;;;;0.60;0.60;;;8.70;74.30;;;;;;6291694;28;20973;-65
2022/02/07 09:49:13;;;;;;;1.17;0.90;;;9.00;73.40;;;;;;6276142;28;20470;-64
2022/02/07 09:52:16;;;;;;;1.50;1.20;;;10.20;70.40;;;;;;6270823;28;20481;-65
2022/02/07 09:55:21;;;;;;;1.30;1.20;;;11.00;64.90;;;;;;6264783;28;20467;-66
2022/02/07 09:58:24;;;;;;;1.03;0.70;;;10.70;64.70;;;;;;6277894;28;20492;-67
2022/02/07 10:01:31;;;;;;;2.03;0.97;;;10.10;64.80;;;;;;6268785;28;20481;-67
2022/02/07 10:04:37;;;;;;;1.90;0.70;;;9.40;67.10;;;;;;6277838;28;20474;-66
2022/02/07 10:07:52;;;;;;;1.17;0.90;;;8.90;70.90;;;;;;6277485;28;20576;-65
2022/02/07 10:11:10;;;;;;;1.33;0.70;;;9.10;71.70;;;;;;6277617;28;20475;-64
2022/02/07 10:14:23;;;;;;;1.67;1.57;;;11.10;70.30;;;;;;6277294;28;20528;-65
2022/02/07 10:17:39;;;;;;;1.60;0.83;;;14.50;56.90;;;;;;6276776;28;20497;-63
2022/02/07 10:34:37;;;;;;;1.77;0.60;;;26.10;29.10;;;;;;6276697;28;20240;-65
2022/02/07 10:37:55;;;;;;;1.30;0.80;;;26.30;27.40;;;;;;6276953;28;20240;-63
2022/02/07 10:41:20;;;;;;;0.80;0.40;;;24.90;26.50;;;;;;6287878;28;20241;-63
2022/02/07 10:44:42;;;;;;;0.80;0.47;;;24.60;26.50;;;;;;6301483;28;20248;-64
2022/02/07 10:47:47;;;;;;;4.10;0.50;;;24.40;25.40;;;;;;6301698;28;20237;-63
2022/02/07 10:51:08;;;;;;;3.10;0.70;;;24.40;25.70;;;;;;6301490;28;20245;-66
2022/02/07 10:54:13;;;;;;;0.87;0.40;;;22.30;25.50;;;;;;6301773;28;20678;-64
2022/02/07 10:57:16;;;;;;;1.03;0.77;;;20.70;26.90;;;;;;6301090;28;20228;-63
2022/02/07 11:00:26;;;;;;;1.53;0.53;;;18.80;28.40;;;;;;6301496;28;20592;-63
2022/02/07 11:03:38;;;;;;;1.00;0.73;;;17.50;30.60;;;;;;6296342;28;20470;-63
2022/02/07 11:06:46;;;;;;;1.33;0.67;;;16.90;31.70;;;;;;6294865;28;20946;-62
2022/02/07 11:13:43;;;;;;;0.70;0.70;;;15.50;34.40;;;;;;6274746;28;20966;-66
2022/02/07 11:16:59;;;;;;;1.00;0.50;;;14.70;34.10;;;;;;6276033;28;20564;-65
2022/02/07 11:23:52;;;;;;;2.57;1.50;;;13.10;38.00;;;;;;6264657;28;20756;-69
2022/02/07 11:27:16;;;;;;;4.50;0.97;;;12.80;39.60;;;;;;6276120;28;20978;-64
2022/02/07 11:30:20;;;;;;;0.67;0.40;;;13.50;39.90;;;;;;6275370;28;20974;-64
2022/02/07 11:33:49;;;;;;;2.23;0.70;;;14.20;40.70;;;;;;6275358;28;20480;-64
2022/02/07 11:37:17;;;;;;;1.57;0.77;;;14.70;40.70;;;;;;6275953;28;20487;-63
2022/02/07 11:40:29;;;;;;;0.90;0.53;;;16.60;39.50;;;;;;6282917;28;20479;-64
2022/02/07 11:43:33;;;;;;;1.13;0.50;;;19.70;34.70;;;;;;6300404;28;20506;-64
2022/02/07 11:46:37;;;;;;;1.00;0.23;;;21.60;31.40;;;;;;6300387;28;20246;-64
2022/02/07 11:49:42;;;;;;;2.50;0.63;;;21.80;29.60;;;;;;6299975;28;20711;-64
2022/02/07 11:52:49;;;;;;;1.07;0.50;;;22.80;29.40;;;;;;6299324;28;20239;-64
2022/02/07 11:56:05;;;;;;;3.70;1.60;;;24.80;27.90;;;;;;6300137;28;20253;-65
2022/02/07 11:59:18;;;;;;;2.87;0.80;;;26.60;25.90;;;;;;6299631;28;20864;-65
2022/02/07 12:02:21;;;;;;;1.67;0.73;;;27.20;24.80;;;;;;6299982;28;20306;-66
2022/02/07 12:05:25;;;;;;;1.03;0.63;;;27.10;23.90;;;;;;6299650;28;20241;-65
2022/02/07 12:08:32;;;;;;;0.60;0.30;;;26.40;24.40;;;;;;6274730;28;20243;-69
2022/02/07 12:11:46;;;;;;;2.83;0.50;;;26.80;23.90;;;;;;6274795;28;20234;-64
2022/02/07 12:14:50;;;;;;;1.50;0.50;;;26.10;24.40;;;;;;6274929;28;20230;-64
2022/02/07 12:17:56;;;;;;;0.80;0.30;;;26.10;24.70;;;;;;6273553;28;20296;-63
2022/02/07 12:21:23;;;;;;;0.80;0.50;;;25.40;23.80;;;;;;6273724;28;20648;-61
2022/02/07 12:24:48;;;;;;;1.63;0.50;;;25.10;24.10;;;;;;6266182;28;20239;-60
2022/02/07 12:27:53;;;;;;;1.43;0.67;;;25.00;23.40;;;;;;6249598;28;20253;-60
2022/02/07 12:31:03;;;;;;;1.37;0.57;;;22.70;24.40;;;;;;6266386;28;20244;-61
2022/02/07 12:34:12;;;;;;;1.43;0.43;;;20.60;26.50;;;;;;6274064;28;20263;-61
2022/02/07 12:37:22;;;;;;;2.93;0.50;;;20.00;27.60;;;;;;6273664;28;20671;-61
2022/02/07 12:40:25;;;;;;;0.50;0.20;;;19.80;27.70;;;;;;6261989;28;20253;-61
2022/02/07 12:43:28;;;;;;;2.30;0.50;;;18.40;28.20;;;;;;6298879;28;20231;-61
2022/02/07 12:46:33;;;;;;;1.40;0.70;;;18.50;29.70;;;;;;6298808;28;20483;-61
2022/02/07 12:49:37;;;;;;;3.13;0.60;;;19.80;28.40;;;;;;6298436;28;20240;-61
2022/02/07 12:52:42;;;;;;;0.90;0.40;;;18.80;28.40;;;;;;6298398;28;20567;-61
2022/02/07 12:55:46;;;;;;;0.67;0.50;;;17.50;29.50;;;;;;6287853;28;20976;-62
2022/02/07 12:58:55;;;;;;;2.60;0.47;;;16.00;31.40;;;;;;6273455;28;20483;-62
2022/02/07 13:01:59;;;;;;;1.30;0.70;;;14.40;33.60;;;;;;6273747;28;20501;-61
2022/02/07 13:05:02;;;;;;;0.80;0.33;;;12.90;36.50;;;;;;6273980;28;20474;-63
2022/02/07 13:08:08;;;;;;;0.70;0.60;;;11.80;40.00;;;;;;6273952;28;20523;-64
2022/02/07 13:11:24;;;;;;;0.60;0.60;;;10.90;41.50;;;;;;6273896;28;20477;-64
2022/02/07 13:14:28;;;;;;;1.17;0.60;;;10.40;43.60;;;;;;6266910;28;20466;-63
2022/02/07 13:17:31;;;;;;;2.67;0.90;;;10.00;45.80;;;;;;6274216;28;20470;-64
2022/02/07 13:20:36;;;;;;;1.77;0.70;;;10.00;47.00;;;;;;6273583;28;20914;-63
2022/02/07 13:23:41;;;;;;;2.93;0.83;;;10.40;46.40;;;;;;6273755;28;20458;-62
2022/02/07 13:26:46;;;;;;;1.33;0.80;;;10.50;46.00;;;;;;6273792;28;20422;-63
2022/02/07 13:29:53;;;;;;;1.50;1.00;;;10.40;47.00;;;;;;6277628;28;20462;-64
2022/02/07 13:32:56;;;;;;;3.47;1.00;;;10.40;47.50;;;;;;6277871;28;20474;-63
2022/02/07 13:35:59;;;;;;;1.33;1.07;;;10.20;47.90;;;;;;6278241;28;20930;-63
2022/02/07 13:39:06;;;;;;;0.77;0.67;;;10.00;49.00;;;;;;6278121;28;20842;-62
2022/02/07 13:42:13;;;;;;;1.00;0.70;;;10.00;49.20;;;;;;6298656;28;20491;-63
2022/02/07 13:45:18;;;;;;;2.33;0.80;;;10.10;49.90;;;;;;6302718;28;20473;-62
2022/02/07 13:48:24;;;;;;;1.40;0.80;;;10.20;49.70;;;;;;6302773;28;20464;-62
2022/02/07 13:51:29;;;;;;;1.27;0.80;;;10.20;50.20;;;;;;6303097;28;20826;-62
2022/02/07 13:54:35;;;;;;;1.17;1.00;;;10.10;50.90;;;;;;6308972;28;20480;-62
2022/02/07 13:57:52;;;;;;;0.70;0.60;;;9.80;52.80;;;;;;6302687;28;20480;-61
2022/02/07 14:00:58;;;;;;;1.77;0.80;;;9.60;54.20;;;;;;6302581;28;20473;-62
2022/02/07 14:04:01;;;;;;;0.80;0.63;;;9.30;54.80;;;;;;6302511;28;20488;-62
2022/02/07 14:07:07;;;;;;;1.20;1.10;;;9.00;55.90;;;;;;6293780;28;20477;-61
2022/02/07 14:10:19;;;;;;;1.10;1.00;;;8.60;56.50;;;;;;6277654;28;20481;-61
2022/02/07 14:13:22;;;;;;;2.40;1.10;;;8.40;58.30;;;;;;6277598;28;20535;-61
2022/02/07 14:16:26;;;;;;;2.50;1.10;;;8.20;61.30;;;;;;6272699;28;20977;-61
2022/02/07 14:19:43;;;;;;;1.10;0.90;;;8.20;64.20;;;;;;6277051;28;20973;-61
2022/02/07 14:22:46;;;;;;;0.83;0.77;;;8.30;66.10;;;;;;6277281;28;20489;-62
2022/02/07 14:25:59;;;;;;;3.67;1.00;;;8.50;67.50;;;;;;6276908;28;20478;-63
2022/02/07 14:29:02;;;;;;;1.60;0.80;;;8.90;67.40;;;;;;6276985;28;20466;-62
2022/02/07 14:32:06;;;;;;;1.10;0.70;;;9.10;66.50;;;;;;6276609;28;20474;-64
2022/02/07 14:35:09;;;;;;;0.50;0.50;;;9.10;65.00;;;;;;6276844;28;20485;-64
2022/02/07 14:38:13;;;;;;;1.40;0.97;;;9.10;64.10;;;;;;6276845;28;20478;-63
2022/02/07 14:41:21;;;;;;;1.33;0.73;;;9.10;64.70;;;;;;6277686;28;20482;-62
2022/02/07 14:44:31;;;;;;;0.70;0.70;;;9.10;65.20;;;;;;6276426;28;20489;-62
2022/02/07 14:47:50;;;;;;;0.93;0.73;;;9.10;64.00;;;;;;6276579;28;20474;-63
2022/02/07 14:50:54;;;;;;;1.10;0.90;;;8.90;63.80;;;;;;6276372;28;20479;-62
2022/02/07 14:53:57;;;;;;;2.80;1.10;;;8.70;65.50;;;;;;6276830;28;20481;-62
2022/02/07 14:57:02;;;;;;;2.20;1.07;;;8.50;66.30;;;;;;6276476;28;20477;-62
2022/02/07 15:00:09;;;;;;;0.87;0.80;;;8.60;67.10;;;;;;6275908;28;20470;-62
2022/02/07 15:03:15;;;;;;;1.17;0.90;;;8.70;67.10;;;;;;6276089;28;20966;-62
2022/02/07 15:06:18;;;;;;;1.03;0.90;;;8.50;66.50;;;;;;6275797;28;20521;-62
2022/02/07 15:09:22;;;;;;;1.10;1.00;;;8.40;66.80;;;;;;6276189;28;20485;-62
2022/02/07 15:12:28;;;;;;;3.30;0.77;;;8.30;67.70;;;;;;6275903;28;20489;-62
2022/02/07 15:15:31;;;;;;;1.60;1.37;;;8.10;68.90;;;;;;6276006;28;20474;-61
2022/02/07 15:18:34;;;;;;;1.53;1.27;;;8.00;69.50;;;;;;6276015;28;20478;-61
2022/02/07 15:21:37;;;;;;;1.47;1.00;;;7.90;69.30;;;;;;6276149;28;20535;-61
2022/02/07 15:24:40;;;;;;;2.83;1.43;;;7.60;68.90;;;;;;6277124;28;20780;-61
2022/02/07 15:27:45;;;;;;;2.00;1.80;;;7.40;69.80;;;;;;6276447;28;20466;-61
2022/02/07 15:31:08;;;;;;;3.20;2.60;;;7.20;70.60;;;;;;6275511;28;20470;-61
2022/02/07 15:34:11;;;;;;;1.87;1.70;;;7.10;71.30;;;;;;6275244;28;20927;-61
2022/02/07 15:37:20;;;;;;;1.40;1.30;;;7.00;71.90;;;;;;6275628;28;20576;-61
2022/02/07 15:40:23;;;;;;;2.20;1.33;;;6.80;72.40;;;;;;6281307;28;20538;-62
2022/02/07 15:43:27;;;;;;;1.67;1.43;;;6.70;73.50;;;;;;6299962;28;20481;-61
2022/02/07 15:46:32;;;;;;;5.63;2.07;;;6.60;73.10;;;;;;6299849;28;20496;-61
2022/02/07 15:49:35;;;;;;;1.60;1.50;;;6.40;73.60;;;;;;6300439;28;20473;-61
2022/02/07 15:52:38;;;;;;;3.07;1.23;;;6.40;75.00;;;;;;6300857;28;20476;-61
2022/02/07 15:55:41;;;;;;;1.50;1.00;;;6.40;75.90;;;;;;6299635;28;20473;-62
2022/02/07 15:58:46;;;;;;;1.10;0.90;;;6.50;75.60;;;;;;6299736;28;20971;-61
2022/02/07 16:01:49;;;;;;;1.93;1.13;;;6.40;75.70;;;;;;6299700;28;20473;-62
2022/02/07 16:04:53;;;;;;;4.37;1.17;;;6.40;76.70;;;;;;6300198;28;20476;-62
2022/02/07 16:07:58;;;;;;;2.77;1.27;;;6.50;77.30;;;;;;6284117;28;20848;-62
2022/02/07 16:11:02;;;;;;;1.57;1.40;;;6.30;77.00;;;;;;6278031;28;20790;-62
2022/02/07 16:14:09;;;;;;;1.40;1.30;;;6.20;77.80;;;;;;6274321;28;20477;-62
2022/02/07 16:17:14;;;;;;;2.13;1.20;;;6.10;78.50;;;;;;6274573;28;20961;-62
2022/02/07 16:20:17;;;;;;;3.30;2.50;;;6.10;79.20;;;;;;6274340;28;20566;-62
2022/02/07 16:23:22;;;;;;;2.20;1.80;;;6.10;79.60;;;;;;6274136;28;20809;-62
2022/02/07 16:26:26;;;;;;;1.63;1.20;;;6.00;81.00;;;;;;6274518;28;20481;-62
2022/02/07 16:29:30;;;;;;;1.63;1.17;;;5.80;82.20;;;;;;6273961;28;20891;-62
2022/02/07 16:32:33;;;;;;;0.87;0.83;;;5.70;84.10;;;;;;6274115;28;20478;-62
2022/02/07 16:35:38;;;;;;;0.80;0.80;;;5.60;85.00;;;;;;6270526;28;20461;-64
2022/02/07 16:38:41;;;;;;;1.37;0.50;;;5.50;86.60;;;;;;6274451;28;20477;-64
2022/02/07 16:41:45;;;;;;;0.97;0.97;;;5.40;89.80;;;;;;6291807;28;20461;-62
2022/02/07 16:45:00;;;;;;;1.20;0.90;;;5.40;91.60;;;;;;6301015;28;20591;-61
2022/02/07 16:48:04;;;;;;;1.13;1.03;;;5.20;92.20;;;;;;6299575;28;20476;-61
2022/02/07 16:51:10;;;;;;;0.90;0.90;;;5.10;94.10;;;;;;6299403;28;20469;-61
2022/02/07 16:54:21;;;;;;;1.30;1.20;;;5.00;94.90;;;;;;6301284;28;20484;-61
2022/02/07 16:57:24;;;;;;;1.80;1.10;;;4.80;96.00;;;;;;6300358;28;20469;-61
2022/02/07 17:00:28;;;;;;;1.13;1.10;;;4.80;96.90;;;;;;6300284;28;20810;-61
2022/02/07 17:03:31;;;;;;;1.33;1.03;;;4.70;97.60;;;;;;6301806;28;20790;-61
2022/02/07 17:06:35;;;;;;;1.30;1.13;;;4.70;98.10;;;;;;6300087;28;20474;-61
2022/02/07 17:09:40;;;;;;;1.83;1.50;;;4.60;98.50;;;;;;6280071;28;20472;-61
2022/02/07 17:12:43;;;;;;;1.53;1.43;;;4.60;98.80;;;;;;6279262;28;20793;-61
2022/02/07 17:15:50;;;;;;;3.10;1.90;;;4.60;99.40;;;;;;6278948;28;20519;-61
2022/02/07 17:18:53;;;;;;;2.03;1.60;;;4.60;99.50;;;;;;6279262;28;20478;-61
2022/02/07 17:21:56;;;;;;;2.80;2.03;;;4.60;99.20;;;;;;6278690;28;20481;-62
2022/02/07 17:25:00;;;;;;;1.60;1.50;;;4.60;99.10;;;;;;6278769;28;20473;-62
2022/02/07 17:28:03;;;;;;;2.10;1.43;;;4.70;99.10;;;;;;6278514;28;20470;-62
2022/02/07 17:31:07;;;;;;;2.50;1.90;;;4.70;99.10;;;;;;6279993;28;20476;-62
2022/02/07 17:34:10;;;;;;;1.83;1.73;;;4.80;98.30;;;;;;6280012;28;20820;-64
2022/02/07 17:37:14;;;;;;;1.87;1.70;;;4.90;97.90;;;;;;6278865;28;20481;-65
2022/02/07 17:40:17;;;;;;;1.60;1.50;;;5.00;98.20;;;;;;6278743;28;20807;-64
2022/02/07 17:43:28;;;;;;;2.67;2.10;;;5.10;98.10;;;;;;6279606;28;20959;-63
2022/02/07 17:46:32;;;;;;;2.43;1.30;;;5.10;97.60;;;;;;6276527;28;20470;-62
2022/02/07 17:49:36;;;;;;;1.40;1.30;;;5.20;97.10;;;;;;6276803;28;20481;-65
2022/02/07 17:52:40;;;;;;;1.40;1.27;;;5.30;96.50;;;;;;6276406;28;20478;-64
2022/02/07 17:55:44;;;;;;;1.43;1.33;;;5.30;95.80;;;;;;6276543;28;20488;-64
2022/02/07 17:58:48;;;;;;;1.67;1.23;;;5.40;95.40;;;;;;6276082;28;20602;-64